Terminal Aerodrome Forecast
Issued by NWS

Home | Current Version | Previous Version | Text Only | Print | Product List | Glossary On
Versions: 1 2 3 4 5 6 7 8 9 10 11 12 13 14 15 16 17
000
FTUS43 KIND 191700
TAFBMG
TAF
KBMG 191720Z 1918/2018 08006KT P6SM SKC
     FM191900 35001KT P6SM BKN025
     FM200500 00000KT 6SM BR BKN020=

USA.gov is the U.S. government's official web portal to all federal, state and local government web resources and services.